Aviation Digital Data Service (ADDS)

Output produced by METARs form (2345 UTC 23 October 2019)
found at http://www.aviationweather.gov/metar/data/
 
METAR text: KBUR 232253Z VRB05KT 10SM CLR 33/00 A2985 RMK AO2 SLP092 T03330000 $
Conditions at: KBUR (BURBANK , CA, US) observed 2253 UTC 23 October 2019
Temperature: 33.3°C (92°F)
Dewpoint: 0.0°C (32°F) [RH = 12%]
Pressure (altimeter): 29.85 inches Hg (1010.9 mb)
[Sea-level pressure: 1009.2 mb]
Winds: variable direction winds at 6 MPH (5 knots; 2.6 m/s)
Visibility: 10 or more miles (16+ km)
Ceiling: at least 12,000 feet AGL
Clouds: sky clear below 12,000 feet AGL
Weather:
SOME DATA ABOVE MAY BE INACCURATE!!!
"$" is an indication the sensor requires maintenance

METAR text: KBUR 232153Z 18006KT 10SM CLR 33/00 A2985 RMK AO2 SLP091 T03280000 $
Conditions at: KBUR (BURBANK , CA, US) observed 2153 UTC 23 October 2019
Temperature: 32.8°C (91°F)
Dewpoint: 0.0°C (32°F) [RH = 12%]
Pressure (altimeter): 29.85 inches Hg (1010.9 mb)
[Sea-level pressure: 1009.1 mb]
Winds: from the S (180 degrees) at 7 MPH (6 knots; 3.1 m/s)
Visibility: 10 or more miles (16+ km)
Ceiling: at least 12,000 feet AGL
Clouds: sky clear below 12,000 feet AGL
Weather:
SOME DATA ABOVE MAY BE INACCURATE!!!
"$" is an indication the sensor requires maintenance

METAR text: KBUR 232053Z VRB05KT 10SM CLR 33/00 A2987 RMK AO2 SLP098 T03330000 58023 $
Conditions at: KBUR (BURBANK , CA, US) observed 2053 UTC 23 October 2019
Temperature: 33.3°C (92°F)
Dewpoint: 0.0°C (32°F) [RH = 12%]
Pressure (altimeter): 29.87 inches Hg (1011.6 mb)
[Sea-level pressure: 1009.8 mb]
Winds: variable direction winds at 6 MPH (5 knots; 2.6 m/s)
Visibility: 10 or more miles (16+ km)
Ceiling: at least 12,000 feet AGL
Clouds: sky clear below 12,000 feet AGL
Weather:
SOME DATA ABOVE MAY BE INACCURATE!!!
"$" is an indication the sensor requires maintenance

METAR text: KBUR 231953Z 00000KT 10SM CLR 31/M01 A2990 RMK AO2 SLP110 T03111006 $
Conditions at: KBUR (BURBANK , CA, US) observed 1953 UTC 23 October 2019
Temperature: 31.1°C (88°F)
Dewpoint: -0.6°C (31°F) [RH = 13%]
Pressure (altimeter): 29.90 inches Hg (1012.6 mb)
[Sea-level pressure: 1011.0 mb]
Winds: calm
Visibility: 10 or more miles (16+ km)
Ceiling: at least 12,000 feet AGL
Clouds: sky clear below 12,000 feet AGL
Weather:
SOME DATA ABOVE MAY BE INACCURATE!!!
"$" is an indication the sensor requires maintenance

METAR text: KBUR 231853Z 15004KT 10SM CLR 30/00 A2991 RMK AO2 SLP115 T03000000 $
Conditions at: KBUR (BURBANK , CA, US) observed 1853 UTC 23 October 2019
Temperature: 30.0°C (86°F)
Dewpoint: 0.0°C (32°F) [RH = 14%]
Pressure (altimeter): 29.91 inches Hg (1013.0 mb)
[Sea-level pressure: 1011.5 mb]
Winds: from the SSE (150 degrees) at 5 MPH (4 knots; 2.1 m/s)
Visibility: 10 or more miles (16+ km)
Ceiling: at least 12,000 feet AGL
Clouds: sky clear below 12,000 feet AGL
Weather:
SOME DATA ABOVE MAY BE INACCURATE!!!
"$" is an indication the sensor requires maintenance

METAR text: KBUR 231753Z 14004KT 10SM CLR 28/00 A2993 RMK AO2 SLP122 T02780000 10278 20156 50004 $
Conditions at: KBUR (BURBANK , CA, US) observed 1753 UTC 23 October 2019
Temperature: 27.8°C (82°F)
Dewpoint: 0.0°C (32°F) [RH = 16%]
Pressure (altimeter): 29.93 inches Hg (1013.6 mb)
[Sea-level pressure: 1012.2 mb]
Winds: from the SE (140 degrees) at 5 MPH (4 knots; 2.1 m/s)
Visibility: 10 or more miles (16+ km)
Ceiling: at least 12,000 feet AGL
Clouds: sky clear below 12,000 feet AGL
Weather:
SOME DATA ABOVE MAY BE INACCURATE!!!
"$" is an indication the sensor requires maintenance

METAR text: KBUR 231653Z 00000KT 10SM CLR 25/03 A2994 RMK AO2 SLP126 T02500028 $
Conditions at: KBUR (BURBANK , CA, US) observed 1653 UTC 23 October 2019
Temperature: 25.0°C (77°F)
Dewpoint: 2.8°C (37°F) [RH = 24%]
Pressure (altimeter): 29.94 inches Hg (1014.0 mb)
[Sea-level pressure: 1012.6 mb]
Winds: calm
Visibility: 10 or more miles (16+ km)
Ceiling: at least 12,000 feet AGL
Clouds: sky clear below 12,000 feet AGL
Weather:
SOME DATA ABOVE MAY BE INACCURATE!!!
"$" is an indication the sensor requires maintenance

METAR text: KBUR 231553Z 00000KT 10SM CLR 21/03 A2994 RMK AO2 SLP125 T02060028 $
Conditions at: KBUR (BURBANK , CA, US) observed 1553 UTC 23 October 2019
Temperature: 20.6°C (69°F)
Dewpoint: 2.8°C (37°F) [RH = 31%]
Pressure (altimeter): 29.94 inches Hg (1014.0 mb)
[Sea-level pressure: 1012.5 mb]
Winds: calm
Visibility: 10 or more miles (16+ km)
Ceiling: at least 12,000 feet AGL
Clouds: sky clear below 12,000 feet AGL
Weather:
SOME DATA ABOVE MAY BE INACCURATE!!!
"$" is an indication the sensor requires maintenance

METAR text: KBUR 231453Z 00000KT 10SM CLR 18/01 A2992 RMK AO2 SLP119 T01780011 51002 $
Conditions at: KBUR (BURBANK , CA, US) observed 1453 UTC 23 October 2019
Temperature: 17.8°C (64°F)
Dewpoint: 1.1°C (34°F) [RH = 32%]
Pressure (altimeter): 29.92 inches Hg (1013.3 mb)
[Sea-level pressure: 1011.9 mb]
Winds: calm
Visibility: 10 or more miles (16+ km)
Ceiling: at least 12,000 feet AGL
Clouds: sky clear below 12,000 feet AGL
Weather:
SOME DATA ABOVE MAY BE INACCURATE!!!
"$" is an indication the sensor requires maintenance

METAR text: KBUR 231353Z 00000KT 10SM CLR 16/01 A2992 RMK AO2 SLP118 T01610006 $
Conditions at: KBUR (BURBANK , CA, US) observed 1353 UTC 23 October 2019
Temperature: 16.1°C (61°F)
Dewpoint: 0.6°C (33°F) [RH = 35%]
Pressure (altimeter): 29.92 inches Hg (1013.3 mb)
[Sea-level pressure: 1011.8 mb]
Winds: calm
Visibility: 10 or more miles (16+ km)
Ceiling: at least 12,000 feet AGL
Clouds: sky clear below 12,000 feet AGL
Weather:
SOME DATA ABOVE MAY BE INACCURATE!!!
"$" is an indication the sensor requires maintenance

METAR text: KBUR 231253Z 00000KT 10SM CLR 16/01 A2992 RMK AO2 SLP118 T01610011 $
Conditions at: KBUR (BURBANK , CA, US) observed 1253 UTC 23 October 2019
Temperature: 16.1°C (61°F)
Dewpoint: 1.1°C (34°F) [RH = 36%]
Pressure (altimeter): 29.92 inches Hg (1013.3 mb)
[Sea-level pressure: 1011.8 mb]
Winds: calm
Visibility: 10 or more miles (16+ km)
Ceiling: at least 12,000 feet AGL
Clouds: sky clear below 12,000 feet AGL
Weather:
SOME DATA ABOVE MAY BE INACCURATE!!!
"$" is an indication the sensor requires maintenance

METAR text: KBUR 231153Z 00000KT 10SM CLR 17/01 A2991 RMK AO2 SLP116 T01670011 10228 20161 56012 $
Conditions at: KBUR (BURBANK , CA, US) observed 1153 UTC 23 October 2019
Temperature: 16.7°C (62°F)
Dewpoint: 1.1°C (34°F) [RH = 35%]
Pressure (altimeter): 29.91 inches Hg (1013.0 mb)
[Sea-level pressure: 1011.6 mb]
Winds: calm
Visibility: 10 or more miles (16+ km)
Ceiling: at least 12,000 feet AGL
Clouds: sky clear below 12,000 feet AGL
Weather:
SOME DATA ABOVE MAY BE INACCURATE!!!
"$" is an indication the sensor requires maintenance

METAR text: KBUR 231053Z 35003KT 10SM CLR 17/01 A2992 RMK AO2 SLP117 T01720011 $
Conditions at: KBUR (BURBANK , CA, US) observed 1053 UTC 23 October 2019
Temperature: 17.2°C (63°F)
Dewpoint: 1.1°C (34°F) [RH = 34%]
Pressure (altimeter): 29.92 inches Hg (1013.3 mb)
[Sea-level pressure: 1011.7 mb]
Winds: from the N (350 degrees) at 3 MPH (3 knots; 1.5 m/s)
Visibility: 10 or more miles (16+ km)
Ceiling: at least 12,000 feet AGL
Clouds: sky clear below 12,000 feet AGL
Weather:
SOME DATA ABOVE MAY BE INACCURATE!!!
"$" is an indication the sensor requires maintenance

METAR text: KBUR 230953Z 00000KT 10SM CLR 19/01 A2994 RMK AO2 SLP124 T01890006 $
Conditions at: KBUR (BURBANK , CA, US) observed 0953 UTC 23 October 2019
Temperature: 18.9°C (66°F)
Dewpoint: 0.6°C (33°F) [RH = 29%]
Pressure (altimeter): 29.94 inches Hg (1014.0 mb)
[Sea-level pressure: 1012.4 mb]
Winds: calm
Visibility: 10 or more miles (16+ km)
Ceiling: at least 12,000 feet AGL
Clouds: sky clear below 12,000 feet AGL
Weather:
SOME DATA ABOVE MAY BE INACCURATE!!!
"$" is an indication the sensor requires maintenance

METAR text: KBUR 230853Z 24004KT 10SM CLR 19/00 A2995 RMK AO2 SLP127 T01890000 56010 $
Conditions at: KBUR (BURBANK , CA, US) observed 0853 UTC 23 October 2019
Temperature: 18.9°C (66°F)
Dewpoint: 0.0°C (32°F) [RH = 28%]
Pressure (altimeter): 29.95 inches Hg (1014.3 mb)
[Sea-level pressure: 1012.7 mb]
Winds: from the WSW (240 degrees) at 5 MPH (4 knots; 2.1 m/s)
Visibility: 10 or more miles (16+ km)
Ceiling: at least 12,000 feet AGL
Clouds: sky clear below 12,000 feet AGL
Weather:
SOME DATA ABOVE MAY BE INACCURATE!!!
"$" is an indication the sensor requires maintenance

METAR text: KBUR 230753Z AUTO 00000KT 10SM CLR 19/01 A2996 RMK AO2 SLP130 T01940006 403500156 $
Conditions at: KBUR (BURBANK , CA, US) observed 0753 UTC 23 October 2019
Temperature: 19.4°C (67°F)
Dewpoint: 0.6°C (33°F) [RH = 28%]
Pressure (altimeter): 29.96 inches Hg (1014.6 mb)
[Sea-level pressure: 1013.0 mb]
Winds: calm
Visibility: 10 or more miles (16+ km)
Ceiling: at least 12,000 feet AGL
Clouds: sky clear below 12,000 feet AGL
Weather:
SOME DATA ABOVE MAY BE INACCURATE!!!
"$" is an indication the sensor requires maintenance

METAR text: KBUR 230653Z AUTO 36003KT 10SM CLR 20/03 A2997 RMK AO2 SLP134 T02000028 $
Conditions at: KBUR (BURBANK , CA, US) observed 0653 UTC 23 October 2019
Temperature: 20.0°C (68°F)
Dewpoint: 2.8°C (37°F) [RH = 32%]
Pressure (altimeter): 29.97 inches Hg (1015.0 mb)
[Sea-level pressure: 1013.4 mb]
Winds: from the N (360 degrees) at 3 MPH (3 knots; 1.5 m/s)
Visibility: 10 or more miles (16+ km)
Ceiling: at least 12,000 feet AGL
Clouds: sky clear below 12,000 feet AGL
Weather:
SOME DATA ABOVE MAY BE INACCURATE!!!
"$" is an indication the sensor requires maintenance

METAR text: KBUR 230553Z AUTO 09003KT 10SM CLR 23/03 A2998 RMK AO2 SLP137 T02280033 10317 20222 53001 $
Conditions at: KBUR (BURBANK , CA, US) observed 0553 UTC 23 October 2019
Temperature: 22.8°C (73°F)
Dewpoint: 3.3°C (38°F) [RH = 28%]
Pressure (altimeter): 29.98 inches Hg (1015.3 mb)
[Sea-level pressure: 1013.7 mb]
Winds: from the E (90 degrees) at 3 MPH (3 knots; 1.5 m/s)
Visibility: 10 or more miles (16+ km)
Ceiling: at least 12,000 feet AGL
Clouds: sky clear below 12,000 feet AGL
Weather:
SOME DATA ABOVE MAY BE INACCURATE!!!
"$" is an indication the sensor requires maintenance

METAR text: KBUR 230453Z 35004KT 10SM CLR 24/01 A2997 RMK AO2 SLP137 T02390006 $
Conditions at: KBUR (BURBANK , CA, US) observed 0453 UTC 23 October 2019
Temperature: 23.9°C (75°F)
Dewpoint: 0.6°C (33°F) [RH = 22%]
Pressure (altimeter): 29.97 inches Hg (1015.0 mb)
[Sea-level pressure: 1013.7 mb]
Winds: from the N (350 degrees) at 5 MPH (4 knots; 2.1 m/s)
Visibility: 10 or more miles (16+ km)
Ceiling: at least 12,000 feet AGL
Clouds: sky clear below 12,000 feet AGL
Weather:
SOME DATA ABOVE MAY BE INACCURATE!!!
"$" is an indication the sensor requires maintenance

METAR text: KBUR 230353Z 32008KT 10SM CLR 24/02 A2997 RMK AO2 SLP136 T02440017 $
Conditions at: KBUR (BURBANK , CA, US) observed 0353 UTC 23 October 2019
Temperature: 24.4°C (76°F)
Dewpoint: 1.7°C (35°F) [RH = 23%]
Pressure (altimeter): 29.97 inches Hg (1015.0 mb)
[Sea-level pressure: 1013.6 mb]
Winds: from the NW (320 degrees) at 9 MPH (8 knots; 4.1 m/s)
Visibility: 10 or more miles (16+ km)
Ceiling: at least 12,000 feet AGL
Clouds: sky clear below 12,000 feet AGL
Weather:
SOME DATA ABOVE MAY BE INACCURATE!!!
"$" is an indication the sensor requires maintenance

METAR text: KBUR 230253Z 00000KT 10SM CLR 27/02 A2998 RMK AO2 SLP138 T02670017 53004 $
Conditions at: KBUR (BURBANK , CA, US) observed 0253 UTC 23 October 2019
Temperature: 26.7°C (80°F)
Dewpoint: 1.7°C (35°F) [RH = 20%]
Pressure (altimeter): 29.98 inches Hg (1015.3 mb)
[Sea-level pressure: 1013.8 mb]
Winds: calm
Visibility: 10 or more miles (16+ km)
Ceiling: at least 12,000 feet AGL
Clouds: sky clear below 12,000 feet AGL
Weather:
SOME DATA ABOVE MAY BE INACCURATE!!!
"$" is an indication the sensor requires maintenance

METAR text: KBUR 230153Z 00000KT 10SM CLR 28/01 A2998 RMK AO2 SLP138 T02830006 $
Conditions at: KBUR (BURBANK , CA, US) observed 0153 UTC 23 October 2019
Temperature: 28.3°C (83°F)
Dewpoint: 0.6°C (33°F) [RH = 17%]
Pressure (altimeter): 29.98 inches Hg (1015.3 mb)
[Sea-level pressure: 1013.8 mb]
Winds: calm
Visibility: 10 or more miles (16+ km)
Ceiling: at least 12,000 feet AGL
Clouds: sky clear below 12,000 feet AGL
Weather:
SOME DATA ABOVE MAY BE INACCURATE!!!
"$" is an indication the sensor requires maintenance

METAR text: KBUR 230053Z 21003KT 10SM CLR 30/00 A2996 RMK AO2 SLP133 T03000000 $
Conditions at: KBUR (BURBANK , CA, US) observed 0053 UTC 23 October 2019
Temperature: 30.0°C (86°F)
Dewpoint: 0.0°C (32°F) [RH = 14%]
Pressure (altimeter): 29.96 inches Hg (1014.6 mb)
[Sea-level pressure: 1013.3 mb]
Winds: from the SSW (210 degrees) at 3 MPH (3 knots; 1.5 m/s)
Visibility: 10 or more miles (16+ km)
Ceiling: at least 12,000 feet AGL
Clouds: sky clear below 12,000 feet AGL
Weather:
SOME DATA ABOVE MAY BE INACCURATE!!!
"$" is an indication the sensor requires maintenance

METAR text: KBUR 222353Z 15007KT 10SM CLR 32/M01 A2997 RMK AO2 SLP133 T03171006 10350 20294 56010 $
Conditions at: KBUR (BURBANK , CA, US) observed 2353 UTC 22 October 2019
Temperature: 31.7°C (89°F)
Dewpoint: -0.6°C (31°F) [RH = 13%]
Pressure (altimeter): 29.97 inches Hg (1015.0 mb)
[Sea-level pressure: 1013.3 mb]
Winds: from the SSE (150 degrees) at 8 MPH (7 knots; 3.6 m/s)
Visibility: 10 or more miles (16+ km)
Ceiling: at least 12,000 feet AGL
Clouds: sky clear below 12,000 feet AGL
Weather:
SOME DATA ABOVE MAY BE INACCURATE!!!
"$" is an indication the sensor requires maintenance

METAR text: KBUR 222253Z 19008KT 10SM CLR 33/M01 A2998 RMK AO2 SLP138 T03281006 $
Conditions at: KBUR (BURBANK , CA, US) observed 2253 UTC 22 October 2019
Temperature: 32.8°C (91°F)
Dewpoint: -0.6°C (31°F) [RH = 12%]
Pressure (altimeter): 29.98 inches Hg (1015.3 mb)
[Sea-level pressure: 1013.8 mb]
Winds: from the S (190 degrees) at 9 MPH (8 knots; 4.1 m/s)
Visibility: 10 or more miles (16+ km)
Ceiling: at least 12,000 feet AGL
Clouds: sky clear below 12,000 feet AGL
Weather:
SOME DATA ABOVE MAY BE INACCURATE!!!
"$" is an indication the sensor requires maintenance

METAR text: KBUR 222153Z 20011KT 10SM CLR 34/01 A2998 RMK AO2 SLP138 T03440006 $
Conditions at: KBUR (BURBANK , CA, US) observed 2153 UTC 22 October 2019
Temperature: 34.4°C (94°F)
Dewpoint: 0.6°C (33°F) [RH = 12%]
Pressure (altimeter): 29.98 inches Hg (1015.3 mb)
[Sea-level pressure: 1013.8 mb]
Winds: from the SSW (200 degrees) at 13 MPH (11 knots; 5.7 m/s)
Visibility: 10 or more miles (16+ km)
Ceiling: at least 12,000 feet AGL
Clouds: sky clear below 12,000 feet AGL
Weather:
SOME DATA ABOVE MAY BE INACCURATE!!!
"$" is an indication the sensor requires maintenance

METAR text: KBUR 222053Z 21006KT 10SM CLR 34/M03 A3000 RMK AO2 SLP143 T03441033 58031 $
Conditions at: KBUR (BURBANK , CA, US) observed 2053 UTC 22 October 2019
Temperature: 34.4°C (94°F)
Dewpoint: -3.3°C (26°F) [RH =  9%]
Pressure (altimeter): 30.00 inches Hg (1016.0 mb)
[Sea-level pressure: 1014.3 mb]
Winds: from the SSW (210 degrees) at 7 MPH (6 knots; 3.1 m/s)
Visibility: 10 or more miles (16+ km)
Ceiling: at least 12,000 feet AGL
Clouds: sky clear below 12,000 feet AGL
Weather:
SOME DATA ABOVE MAY BE INACCURATE!!!
"$" is an indication the sensor requires maintenance

METAR text: KBUR 221953Z 15005KT 10SM CLR 34/M02 A3004 RMK AO2 SLP157 T03391022 $
Conditions at: KBUR (BURBANK , CA, US) observed 1953 UTC 22 October 2019
Temperature: 33.9°C (93°F)
Dewpoint: -2.2°C (28°F) [RH = 10%]
Pressure (altimeter): 30.04 inches Hg (1017.4 mb)
[Sea-level pressure: 1015.7 mb]
Winds: from the SSE (150 degrees) at 6 MPH (5 knots; 2.6 m/s)
Visibility: 10 or more miles (16+ km)
Ceiling: at least 12,000 feet AGL
Clouds: sky clear below 12,000 feet AGL
Weather:
SOME DATA ABOVE MAY BE INACCURATE!!!
"$" is an indication the sensor requires maintenance

METAR text: KBUR 221853Z 15003KT 10SM CLR 32/M01 A3008 RMK AO2 SLP170 T03221006 $
Conditions at: KBUR (BURBANK , CA, US) observed 1853 UTC 22 October 2019
Temperature: 32.2°C (90°F)
Dewpoint: -0.6°C (31°F) [RH = 12%]
Pressure (altimeter): 30.08 inches Hg (1018.7 mb)
[Sea-level pressure: 1017.0 mb]
Winds: from the SSE (150 degrees) at 3 MPH (3 knots; 1.5 m/s)
Visibility: 10 or more miles (16+ km)
Ceiling: at least 12,000 feet AGL
Clouds: sky clear below 12,000 feet AGL
Weather:
SOME DATA ABOVE MAY BE INACCURATE!!!
"$" is an indication the sensor requires maintenance

METAR text: KBUR 221753Z 00000KT 10SM CLR 29/M01 A3009 RMK AO2 SLP176 T02941011 10300 20156 50002 $
Conditions at: KBUR (BURBANK , CA, US) observed 1753 UTC 22 October 2019
Temperature: 29.4°C (85°F)
Dewpoint: -1.1°C (30°F) [RH = 14%]
Pressure (altimeter): 30.09 inches Hg (1019.0 mb)
[Sea-level pressure: 1017.6 mb]
Winds: calm
Visibility: 10 or more miles (16+ km)
Ceiling: at least 12,000 feet AGL
Clouds: sky clear below 12,000 feet AGL
Weather:
SOME DATA ABOVE MAY BE INACCURATE!!!
"$" is an indication the sensor requires maintenance

METAR text: KBUR 221653Z 00000KT 10SM CLR 26/03 A3010 RMK AO2 SLP180 T02560028 $
Conditions at: KBUR (BURBANK , CA, US) observed 1653 UTC 22 October 2019
Temperature: 25.6°C (78°F)
Dewpoint: 2.8°C (37°F) [RH = 23%]
Pressure (altimeter): 30.10 inches Hg (1019.4 mb)
[Sea-level pressure: 1018.0 mb]
Winds: calm
Visibility: 10 or more miles (16+ km)
Ceiling: at least 12,000 feet AGL
Clouds: sky clear below 12,000 feet AGL
Weather:
SOME DATA ABOVE MAY BE INACCURATE!!!
"$" is an indication the sensor requires maintenance

METAR text: KBUR 221553Z 00000KT 10SM CLR 23/02 A3010 RMK AO2 SLP180 T02280022
Conditions at: KBUR (BURBANK , CA, US) observed 1553 UTC 22 October 2019
Temperature: 22.8°C (73°F)
Dewpoint: 2.2°C (36°F) [RH = 26%]
Pressure (altimeter): 30.10 inches Hg (1019.4 mb)
[Sea-level pressure: 1018.0 mb]
Winds: calm
Visibility: 10 or more miles (16+ km)
Ceiling: at least 12,000 feet AGL
Clouds: sky clear below 12,000 feet AGL
Weather: no significant weather observed at this time

METAR text: KBUR 221453Z 00000KT 9SM CLR 18/02 A3008 RMK AO2 SLP175 T01780022 51007
Conditions at: KBUR (BURBANK , CA, US) observed 1453 UTC 22 October 2019
Temperature: 17.8°C (64°F)
Dewpoint: 2.2°C (36°F) [RH = 35%]
Pressure (altimeter): 30.08 inches Hg (1018.7 mb)
[Sea-level pressure: 1017.5 mb]
Winds: calm
Visibility: 9 miles (14 km)
Ceiling: at least 12,000 feet AGL
Clouds: sky clear below 12,000 feet AGL
Weather: no significant weather observed at this time

METAR text: KBUR 221353Z 26003KT 10SM CLR 17/02 A3008 RMK AO2 SLP173 T01670017 $
Conditions at: KBUR (BURBANK , CA, US) observed 1353 UTC 22 October 2019
Temperature: 16.7°C (62°F)
Dewpoint: 1.7°C (35°F) [RH = 36%]
Pressure (altimeter): 30.08 inches Hg (1018.7 mb)
[Sea-level pressure: 1017.3 mb]
Winds: from the W (260 degrees) at 3 MPH (3 knots; 1.5 m/s)
Visibility: 10 or more miles (16+ km)
Ceiling: at least 12,000 feet AGL
Clouds: sky clear below 12,000 feet AGL
Weather:
SOME DATA ABOVE MAY BE INACCURATE!!!
"$" is an indication the sensor requires maintenance

METAR text: KBUR 221253Z AUTO 00000KT 10SM CLR 16/02 A3007 RMK AO2 SLP171 T01610022 $
Conditions at: KBUR (BURBANK , CA, US) observed 1253 UTC 22 October 2019
Temperature: 16.1°C (61°F)
Dewpoint: 2.2°C (36°F) [RH = 39%]
Pressure (altimeter): 30.07 inches Hg (1018.4 mb)
[Sea-level pressure: 1017.1 mb]
Winds: calm
Visibility: 10 or more miles (16+ km)
Ceiling: at least 12,000 feet AGL
Clouds: sky clear below 12,000 feet AGL
Weather:
SOME DATA ABOVE MAY BE INACCURATE!!!
"$" is an indication the sensor requires maintenance

METAR text: KBUR 221153Z AUTO 00000KT 10SM CLR 17/01 A3006 RMK AO2 SLP167 T01670011 10217 20167 55003 $
Conditions at: KBUR (BURBANK , CA, US) observed 1153 UTC 22 October 2019
Temperature: 16.7°C (62°F)
Dewpoint: 1.1°C (34°F) [RH = 35%]
Pressure (altimeter): 30.06 inches Hg (1018.0 mb)
[Sea-level pressure: 1016.7 mb]
Winds: calm
Visibility: 10 or more miles (16+ km)
Ceiling: at least 12,000 feet AGL
Clouds: sky clear below 12,000 feet AGL
Weather:
SOME DATA ABOVE MAY BE INACCURATE!!!
"$" is an indication the sensor requires maintenance

Forecast for: KBUR (BURBANK , CA, US)
Text: KBUR 232343Z 2400/2424 17008KT P6SM SKC
Forecast period: 0000 to 0300 UTC 24 October 2019
Forecast type: FROM: standard forecast or significant change
Winds: from the S (170 degrees) at 9 MPH (8 knots; 4.1 m/s)
Visibility: 6 or more miles 10+ km)
Clouds: clear skies
Weather: no significant weather forecast for this period
Text: FM240300 VRB03KT P6SM SKC
Forecast period: 0300 to 1000 UTC 24 October 2019
Forecast type: FROM: standard forecast or significant change
Winds: variable direction winds at 3 MPH (3 knots; 1.5 m/s)
Visibility: 6 or more miles 10+ km)
Clouds: clear skies
Weather: no significant weather forecast for this period
Text: FM241000 06010KT P6SM SKC
Forecast period: 1000 to 2000 UTC 24 October 2019
Forecast type: FROM: standard forecast or significant change
Winds: from the ENE (60 degrees) at 12 MPH (10 knots; 5.1 m/s)
Visibility: 6 or more miles 10+ km)
Clouds: clear skies
Weather: no significant weather forecast for this period
Text: FM242000 10008KT P6SM SKC
Forecast period: 2000 UTC 24 October 2019 to 0000 UTC 25 October 2019
Forecast type: FROM: standard forecast or significant change
Winds: from the E (100 degrees) at 9 MPH (8 knots; 4.1 m/s)
Visibility: 6 or more miles 10+ km)
Clouds: clear skies
Weather: no significant weather forecast for this period